Time;durP1;ratioP1;P1;durP2;ratioP2;P2;SDS_P1;SDS_P2;PMS_P1;PMS_P2;Temp;Humidity;BMP_temperature;BMP_pressure;BME280_temperature;BME280_humidity;BME280_pressure;Samples;Min_cycle;Max_cycle;Signal;HPM_P1;HPM_P2
2023/05/19 00:00:20;;;;;;;0.00;0.00;;;;;;;7.80;92.56;101526.91;4992028;28;20188;-75
2023/05/19 00:02:45;;;;;;;0.10;0.10;;;;;;;7.81;92.57;101534.00;4991575;28;20679;-72
2023/05/19 00:05:17;;;;;;;0.00;0.00;;;;;;;7.75;92.92;101528.53;4991661;28;20280;-76
2023/05/19 00:07:43;;;;;;;0.20;0.20;;;;;;;7.70;93.43;101531.25;4991238;28;20671;-74
2023/05/19 00:10:10;;;;;;;0.00;0.00;;;;;;;7.73;93.37;101538.06;4974117;28;20694;-75
2023/05/19 00:12:36;;;;;;;1.60;1.40;;;;;;;7.71;93.50;101535.59;4974048;28;20292;-74
2023/05/19 00:15:01;;;;;;;0.33;0.23;;;;;;;7.67;93.71;101534.50;4991807;28;20181;-75
2023/05/19 00:17:27;;;;;;;0.10;0.10;;;;;;;7.62;93.71;101533.66;4991259;28;20184;-74
2023/05/19 00:19:53;;;;;;;0.10;0.10;;;;;;;7.62;93.28;101537.19;4991269;28;20177;-74
2023/05/19 00:22:18;;;;;;;0.00;0.00;;;;;;;7.63;93.52;101536.09;4991662;28;20197;-75
2023/05/19 00:24:44;;;;;;;0.00;0.00;;;;;;;7.67;93.72;101531.78;4991498;28;20189;-76
2023/05/19 00:27:09;;;;;;;1.00;1.00;;;;;;;7.70;93.78;101535.88;4991059;28;20684;-76
2023/05/19 00:29:35;;;;;;;0.00;0.00;;;;;;;7.70;93.64;101535.88;4991740;28;20180;-76
2023/05/19 00:32:00;;;;;;;0.10;0.10;;;;;;;7.67;93.87;101529.06;4991329;28;20691;-76
2023/05/19 00:34:25;;;;;;;0.00;0.00;;;;;;;7.67;93.82;101531.78;4991674;28;20205;-76
2023/05/19 00:36:51;;;;;;;0.20;0.20;;;;;;;7.70;93.50;101528.53;4973799;28;20725;-75
2023/05/19 00:39:16;;;;;;;0.40;0.40;;;;;;;7.71;94.17;101521.19;4991530;28;20180;-75
2023/05/19 00:41:41;;;;;;;0.20;0.20;;;;;;;7.73;93.82;101522.56;4991181;28;20232;-75
2023/05/19 00:44:07;;;;;;;0.00;0.00;;;;;;;7.78;94.10;101526.38;4973906;28;20625;-76
2023/05/19 00:46:32;;;;;;;0.00;0.00;;;;;;;7.80;94.56;101513.31;4991222;28;20185;-75
2023/05/19 00:48:58;;;;;;;0.00;0.00;;;;;;;7.83;95.31;101510.91;4991603;28;20685;-76
2023/05/19 00:51:26;;;;;;;0.00;0.00;;;;;;;7.82;95.14;101514.72;4991286;28;20745;-76
2023/05/19 00:53:51;;;;;;;0.00;0.00;;;;;;;7.82;94.71;101514.72;4991182;28;20185;-76
2023/05/19 00:56:17;;;;;;;0.10;0.10;;;;;;;7.85;94.04;101510.63;4992752;28;20695;-75
2023/05/19 00:58:44;;;;;;;0.10;0.10;;;;;;;7.78;94.05;101518.22;4995147;28;20550;-76
2023/05/19 01:01:10;;;;;;;0.00;0.00;;;;;;;7.78;94.21;101512.75;4995223;28;20177;-75
2023/05/19 01:03:36;;;;;;;0.00;0.00;;;;;;;7.85;94.15;101510.63;4977531;28;20644;-75
2023/05/19 01:06:06;;;;;;;0.10;0.10;;;;;;;7.88;93.74;101510.09;4994902;28;20207;-76
2023/05/19 01:08:36;;;;;;;0.00;0.00;;;;;;;7.86;93.55;101509.53;4977613;28;20185;-78
2023/05/19 01:11:02;;;;;;;0.00;0.00;;;;;;;7.83;93.89;101507.38;4995054;28;20228;-75
2023/05/19 01:13:28;;;;;;;0.00;0.00;;;;;;;7.84;93.65;101509.00;4995096;28;20260;-76
2023/05/19 01:16:02;;;;;;;0.00;0.00;;;;;;;7.80;93.94;101507.88;4994885;28;20216;-76
2023/05/19 01:18:44;;;;;;;0.00;0.00;;;;;;;7.76;93.90;101502.97;4995075;28;20177;-76
2023/05/19 01:21:43;;;;;;;0.20;0.20;;;;;;;7.66;94.14;101504.81;4977245;28;20180;-76
2023/05/19 01:24:23;;;;;;;0.00;0.00;;;;;;;7.67;94.62;101510.03;4925217;28;20197;-76
2023/05/19 01:27:10;;;;;;;0.00;0.00;;;;;;;7.70;94.81;101500.50;4976927;28;20565;-76
2023/05/19 01:29:58;;;;;;;0.00;0.00;;;;;;;7.65;94.61;101503.19;4976981;28;20593;-75
2023/05/19 01:32:24;;;;;;;0.10;0.10;;;;;;;7.61;95.03;101507.53;4994417;28;20594;-75
2023/05/19 01:34:51;;;;;;;0.20;0.20;;;;;;;7.56;95.02;101502.91;4994737;28;20181;-76
2023/05/19 01:37:18;;;;;;;0.00;0.00;;;;;;;7.51;95.17;101511.00;4976713;28;20181;-75
2023/05/19 01:39:44;;;;;;;0.00;0.00;;;;;;;7.48;95.73;101514.28;4994380;28;20211;-74
2023/05/19 01:42:11;;;;;;;0.53;0.53;;;;;;;7.47;96.47;101504.47;4995382;28;20197;-72
2023/05/19 01:44:36;;;;;;;0.00;0.00;;;;;;;7.36;96.37;101513.66;4994696;28;20191;-76
2023/05/19 01:47:02;;;;;;;0.00;0.00;;;;;;;7.29;96.21;101513.09;4976383;28;20655;-75
2023/05/19 01:49:28;;;;;;;0.00;0.00;;;;;;;7.26;96.26;101509.00;4994197;28;20604;-76
2023/05/19 01:51:53;;;;;;;0.37;0.37;;;;;;;7.21;96.65;101510.84;4993941;28;20851;-76
2023/05/19 01:54:18;;;;;;;0.53;0.30;;;;;;;7.16;96.78;101508.94;4994065;28;20177;-75
2023/05/19 01:57:17;;;;;;;0.10;0.10;;;;;;;7.12;97.60;101514.06;4993539;28;20231;-74
2023/05/19 02:00:19;;;;;;;0.00;0.00;;;;;;;7.02;97.88;101511.28;4994259;28;20230;-75
2023/05/19 02:03:06;;;;;;;0.27;0.27;;;;;;;6.93;98.42;101512.03;4992830;28;20265;-73
2023/05/19 02:05:58;;;;;;;0.00;0.00;;;;;;;6.92;98.87;101519.34;4994046;28;20181;-74
2023/05/19 02:08:27;;;;;;;0.00;0.00;;;;;;;6.93;100.00;101518.28;4993924;28;20208;-74
2023/05/19 02:11:07;;;;;;;0.00;0.00;;;;;;;6.90;100.00;101517.97;4993769;28;20201;-75
2023/05/19 02:13:36;;;;;;;0.00;0.00;;;;;;;6.88;100.00;101520.97;4976453;28;20667;-75
2023/05/19 02:16:05;;;;;;;0.00;0.00;;;;;;;6.88;100.00;101512.81;4993322;28;20664;-74
2023/05/19 02:18:34;;;;;;;0.00;0.00;;;;;;;6.96;100.00;101506.09;4976412;28;20199;-73
2023/05/19 02:21:00;;;;;;;0.20;0.20;;;;;;;6.92;100.00;101519.34;4993873;28;20185;-74
2023/05/19 02:23:25;;;;;;;0.00;0.00;;;;;;;6.97;100.00;101510.44;4975996;28;20209;-75
2023/05/19 02:25:51;;;;;;;0.50;0.50;;;;;;;6.95;100.00;101513.41;4993498;28;20678;-75
2023/05/19 02:28:17;;;;;;;0.00;0.00;;;;;;;6.93;100.00;101504.69;4975850;28;20272;-74
2023/05/19 02:30:42;;;;;;;0.00;0.00;;;;;;;6.93;100.00;101504.69;4976014;28;20344;-75
2023/05/19 02:33:10;;;;;;;0.00;0.00;;;;;;;6.86;100.00;101514.97;4993336;28;20217;-73
2023/05/19 02:35:35;;;;;;;0.00;0.00;;;;;;;6.82;100.00;101508.44;4976315;28;20604;-75
2023/05/19 02:38:01;;;;;;;0.00;0.00;;;;;;;6.82;100.00;101503.00;4993214;28;20177;-75
2023/05/19 02:40:26;;;;;;;0.50;0.50;;;;;;;6.77;100.00;101509.19;4975933;28;20559;-73
2023/05/19 02:42:51;;;;;;;0.00;0.00;;;;;;;6.78;100.00;101516.25;4993147;28;20205;-75
2023/05/19 02:45:17;;;;;;;0.50;0.50;;;;;;;6.78;100.00;101512.72;4975853;28;20243;-75
2023/05/19 02:47:42;;;;;;;0.00;0.00;;;;;;;6.70;100.00;101500.47;4975463;28;20643;-74
2023/05/19 02:50:08;;;;;;;0.00;0.00;;;;;;;6.71;100.00;101502.09;4993104;28;20300;-75
2023/05/19 02:52:33;;;;;;;0.00;0.00;;;;;;;6.66;100.00;101498.53;4993064;28;20339;-74
2023/05/19 02:54:59;;;;;;;0.00;0.00;;;;;;;6.64;100.00;101504.19;4993084;28;20213;-74
2023/05/19 02:57:25;;;;;;;0.60;0.60;;;;;;;6.60;100.00;101508.50;4992565;28;20745;-75
2023/05/19 02:59:50;;;;;;;0.00;0.00;;;;;;;6.59;100.00;101492.47;4975522;28;20189;-73
2023/05/19 03:02:16;;;;;;;0.00;0.00;;;;;;;6.55;100.00;101493.00;4975442;28;20224;-75
2023/05/19 03:04:41;;;;;;;0.00;0.00;;;;;;;6.54;100.00;101498.69;4993327;28;20189;-75
2023/05/19 03:07:12;;;;;;;0.20;0.20;;;;;;;6.56;100.00;101491.09;4975070;28;20192;-73
2023/05/19 03:09:38;;;;;;;0.00;0.00;;;;;;;6.54;100.00;101491.38;4992704;28;20220;-75
2023/05/19 03:12:06;;;;;;;0.00;0.00;;;;;;;6.52;100.00;101493.53;4992666;28;20264;-75
2023/05/19 03:14:32;;;;;;;0.00;0.00;;;;;;;6.45;100.00;101487.47;4975391;28;20181;-73
2023/05/19 03:16:58;;;;;;;0.10;0.10;;;;;;;6.52;100.00;101482.66;4992173;28;20639;-74
2023/05/19 03:19:24;;;;;;;0.03;0.03;;;;;;;6.48;100.00;101488.84;4992203;28;20177;-75
2023/05/19 03:21:50;;;;;;;0.23;0.23;;;;;;;6.48;100.00;101497.00;4974672;28;20280;-75
2023/05/19 03:24:16;;;;;;;0.00;0.00;;;;;;;6.49;100.00;101488.59;4992624;28;20185;-75
2023/05/19 03:26:41;;;;;;;0.00;0.00;;;;;;;6.46;100.00;101491.00;4992004;28;20646;-75
2023/05/19 03:29:07;;;;;;;0.00;0.00;;;;;;;6.46;100.00;101489.13;4992423;28;20268;-75
2023/05/19 03:31:32;;;;;;;0.00;0.00;;;;;;;6.56;100.00;101500.06;4992140;28;20562;-75
2023/05/19 03:33:57;;;;;;;0.00;0.00;;;;;;;6.57;100.00;101490.84;4974656;28;20276;-75
2023/05/19 03:36:23;;;;;;;0.00;0.00;;;;;;;6.61;100.00;101490.31;4991739;28;20188;-74
2023/05/19 03:38:48;;;;;;;0.10;0.10;;;;;;;6.60;100.00;101492.22;4992213;28;20213;-73
2023/05/19 03:41:14;;;;;;;0.13;0.13;;;;;;;6.56;100.00;101500.06;4974756;28;20188;-74
2023/05/19 03:43:39;;;;;;;0.30;0.30;;;;;;;6.56;100.00;101499.25;4992149;28;20197;-74
2023/05/19 03:46:05;;;;;;;0.10;0.10;;;;;;;6.55;100.00;101498.44;4974368;28;20189;-73
2023/05/19 03:48:30;;;;;;;0.00;0.00;;;;;;;6.60;100.00;101499.53;4974792;28;20183;-74
2023/05/19 03:50:55;;;;;;;0.00;0.00;;;;;;;6.69;100.00;101496.09;4991851;28;20236;-74
2023/05/19 03:53:20;;;;;;;0.20;0.20;;;;;;;6.69;100.00;101498.81;4974464;28;20287;-75
2023/05/19 03:55:48;;;;;;;0.00;0.00;;;;;;;6.75;100.00;101497.78;4991851;28;20260;-75
2023/05/19 03:58:13;;;;;;;0.43;0.43;;;;;;;6.82;100.00;101503.00;4991675;28;20231;-75
2023/05/19 04:00:39;;;;;;;0.00;0.00;;;;;;;6.86;100.00;101494.06;4991911;28;20173;-75
2023/05/19 04:03:04;;;;;;;0.20;0.20;;;;;;;6.95;100.00;101491.69;4991750;28;20557;-75
2023/05/19 04:05:30;;;;;;;0.00;0.00;;;;;;;7.04;100.00;101495.53;4991763;28;20185;-75
2023/05/19 04:07:55;;;;;;;0.37;0.37;;;;;;;7.18;100.00;101505.94;4991567;28;20188;-72
2023/05/19 04:10:20;;;;;;;0.00;0.00;;;;;;;7.22;100.00;101490.75;4991512;28;20201;-75
2023/05/19 04:12:46;;;;;;;0.67;0.67;;;;;;;7.14;100.00;101500.22;4974098;28;20683;-75
2023/05/19 04:15:12;;;;;;;0.00;0.00;;;;;;;7.16;100.00;101498.88;4973702;28;20188;-74
2023/05/19 04:17:38;;;;;;;0.00;0.00;;;;;;;7.26;100.00;101510.91;4991260;28;20188;-76
2023/05/19 04:20:05;;;;;;;0.00;0.00;;;;;;;7.32;100.00;101505.22;4991927;28;20256;-76
2023/05/19 04:22:31;;;;;;;0.00;0.00;;;;;;;7.38;100.00;101501.47;4991364;28;20585;-75
2023/05/19 04:24:57;;;;;;;0.00;0.00;;;;;;;7.34;100.00;101507.66;4973958;28;20195;-75
2023/05/19 04:27:22;;;;;;;0.00;0.00;;;;;;;7.45;100.00;101509.38;4991144;28;20177;-76
2023/05/19 04:29:48;;;;;;;0.00;0.00;;;;;;;7.58;100.00;101510.78;4990873;28;20666;-76
2023/05/19 04:32:16;;;;;;;0.00;0.00;;;;;;;7.64;100.00;101513.25;4990909;28;20216;-76
2023/05/19 04:34:44;;;;;;;0.00;0.00;;;;;;;7.55;100.00;101512.16;4973940;28;20195;-76
2023/05/19 04:37:13;;;;;;;0.00;0.00;;;;;;;7.63;100.00;101516.25;4991267;28;20186;-76
2023/05/19 04:39:42;;;;;;;0.00;0.00;;;;;;;7.76;100.00;101518.47;4991356;28;20181;-76
2023/05/19 04:42:08;;;;;;;0.00;0.00;;;;;;;7.86;100.00;101518.53;4973742;28;20208;-76
2023/05/19 04:44:34;;;;;;;0.00;0.00;;;;;;;7.97;100.00;101519.38;4991465;28;20184;-76
2023/05/19 04:47:00;;;;;;;0.00;0.00;;;;;;;8.05;100.00;101525.09;4991032;28;20183;-76
2023/05/19 04:49:26;;;;;;;0.00;0.00;;;;;;;8.09;100.00;101522.66;4974083;28;20559;-76
2023/05/19 04:51:51;;;;;;;0.00;0.00;;;;;;;8.14;100.00;101522.69;4973654;28;20209;-76
2023/05/19 04:54:17;;;;;;;0.00;0.00;;;;;;;7.95;100.00;101521.53;4991505;28;20248;-76
2023/05/19 04:56:42;;;;;;;0.00;0.00;;;;;;;7.66;100.00;101524.69;4990840;28;20221;-76
2023/05/19 04:59:08;;;;;;;0.00;0.00;;;;;;;7.57;100.00;101520.03;4973881;28;20187;-74
2023/05/19 05:01:39;;;;;;;0.00;0.00;;;;;;;7.71;100.00;101524.72;4991053;28;20228;-75
2023/05/19 05:04:05;;;;;;;0.00;0.00;;;;;;;7.74;100.00;101526.09;4991189;28;20196;-76
2023/05/19 05:06:30;;;;;;;0.07;0.07;;;;;;;7.64;100.00;101523.31;4990775;28;20208;-76
2023/05/19 05:08:56;;;;;;;0.20;0.20;;;;;;;7.54;100.00;101526.00;4991105;28;20212;-76
2023/05/19 05:11:21;;;;;;;0.00;0.00;;;;;;;7.59;100.00;101534.19;4991062;28;20704;-76
2023/05/19 05:13:47;;;;;;;0.00;0.00;;;;;;;7.59;100.00;101526.84;4973496;28;20185;-76
2023/05/19 05:16:13;;;;;;;0.00;0.00;;;;;;;7.71;100.00;101519.28;4973184;28;20717;-76
2023/05/19 05:18:38;;;;;;;0.00;0.00;;;;;;;7.76;100.00;101532.91;4991018;28;20181;-76
2023/05/19 05:21:05;;;;;;;0.00;0.00;;;;;;;7.96;100.00;101528.63;4991086;28;20177;-76
2023/05/19 05:23:31;;;;;;;0.00;0.00;;;;;;;8.07;100.00;101525.66;4990825;28;20562;-75
2023/05/19 05:25:56;;;;;;;0.13;0.13;;;;;;;8.11;100.00;101525.97;4973731;28;20184;-76
2023/05/19 05:28:22;;;;;;;0.00;0.00;;;;;;;8.25;100.00;101524.34;4973114;28;20189;-76
2023/05/19 05:30:48;;;;;;;0.00;0.00;;;;;;;8.15;100.00;101516.16;4990745;28;20675;-76
2023/05/19 05:33:14;;;;;;;0.00;0.00;;;;;;;8.22;100.00;101524.06;4973113;28;20288;-75
2023/05/19 05:35:39;;;;;;;0.20;0.20;;;;;;;8.25;100.00;101520.81;4990788;28;20239;-73
2023/05/19 05:38:05;;;;;;;0.00;0.00;;;;;;;8.19;100.00;101522.69;4973027;28;20200;-76
2023/05/19 05:40:30;;;;;;;0.00;0.00;;;;;;;8.33;100.00;101523.81;4990860;28;20173;-76
2023/05/19 05:42:57;;;;;;;0.53;0.53;;;;;;;8.38;100.00;101524.94;4993246;28;20203;-76
2023/05/19 05:45:23;;;;;;;0.50;0.17;;;;;;;8.42;100.00;101517.88;4994430;28;20188;-76
2023/05/19 05:47:49;;;;;;;0.07;0.07;;;;;;;8.52;100.00;101520.59;4994326;28;20181;-76
2023/05/19 05:50:15;;;;;;;0.00;0.00;;;;;;;8.67;100.00;101523.31;4976941;28;20213;-76
2023/05/19 05:52:43;;;;;;;0.00;0.00;;;;;;;8.79;100.00;101523.06;4976502;28;20236;-76
2023/05/19 05:55:09;;;;;;;0.10;0.10;;;;;;;8.93;99.51;101527.69;4976824;28;20185;-76
2023/05/19 05:57:35;;;;;;;0.00;0.00;;;;;;;9.06;99.60;101530.94;4976298;28;20189;-76
2023/05/19 06:00:00;;;;;;;0.00;0.00;;;;;;;9.07;98.80;101538.03;4994215;28;20211;-76
2023/05/19 06:02:27;;;;;;;1.13;1.13;;;;;;;9.27;98.33;101526.31;4994360;28;20616;-76
2023/05/19 06:04:53;;;;;;;0.63;0.63;;;;;;;9.40;98.08;101542.91;4976657;28;20227;-76
2023/05/19 06:07:18;;;;;;;0.00;0.00;;;;;;;9.35;97.34;101534.72;4976160;28;20181;-76
2023/05/19 06:09:43;;;;;;;0.00;0.00;;;;;;;9.49;97.13;101538.50;4993947;28;20196;-76
2023/05/19 06:12:10;;;;;;;0.00;0.00;;;;;;;9.49;96.29;101535.78;4993823;28;20288;-76
2023/05/19 06:14:35;;;;;;;0.17;0.17;;;;;;;9.53;95.77;101536.84;4976596;28;20190;-76
2023/05/19 06:17:00;;;;;;;0.00;0.00;;;;;;;9.54;95.51;101537.66;4975841;28;20203;-76
2023/05/19 06:19:25;;;;;;;0.10;0.10;;;;;;;9.67;95.70;101541.72;4993787;28;20224;-76
2023/05/19 06:21:51;;;;;;;0.30;0.30;;;;;;;9.76;95.28;101538.16;4993555;28;20565;-74
2023/05/19 06:24:16;;;;;;;0.03;0.03;;;;;;;9.81;94.65;101540.03;4994319;28;20268;-76
2023/05/19 06:26:41;;;;;;;0.10;0.10;;;;;;;9.75;93.62;101538.44;4993159;28;20256;-76
2023/05/19 06:29:07;;;;;;;0.10;0.10;;;;;;;9.82;94.66;101544.38;4993660;28;20236;-76
2023/05/19 06:31:32;;;;;;;0.00;0.00;;;;;;;9.95;94.04;101540.25;4975659;28;20705;-76
2023/05/19 06:33:57;;;;;;;0.00;0.00;;;;;;;10.05;94.09;101532.81;4993607;28;20243;-74
2023/05/19 06:36:23;;;;;;;0.00;0.00;;;;;;;10.22;93.51;101528.94;4991744;28;20177;-76
2023/05/19 06:38:48;;;;;;;0.00;0.00;;;;;;;10.24;92.80;101534.94;4991753;28;20177;-80
2023/05/19 06:41:13;;;;;;;2.73;0.67;;;;;;;10.51;92.67;101542.69;4994304;28;20173;-76
2023/05/19 06:43:39;;;;;;;5.33;1.43;;;;;;;10.31;90.84;101521.78;4975727;28;20614;-76
2023/05/19 06:46:04;;;;;;;0.13;0.13;;;;;;;10.53;90.84;101532.28;4992867;28;20272;-74
2023/05/19 06:48:29;;;;;;;0.17;0.13;;;;;;;10.50;90.16;101530.94;4975852;28;20205;-77
2023/05/19 06:50:55;;;;;;;0.10;0.10;;;;;;;10.49;88.92;101537.50;4993197;28;20201;-76
2023/05/19 06:53:20;;;;;;;0.97;0.60;;;;;;;10.69;88.85;101537.34;4992608;28;20556;-74
2023/05/19 06:55:48;;;;;;;0.10;0.10;;;;;;;11.00;89.09;101542.59;4992994;28;20231;-76
2023/05/19 06:58:14;;;;;;;0.10;0.10;;;;;;;10.84;87.83;101533.69;4992811;28;20173;-76
2023/05/19 07:00:40;;;;;;;0.50;0.47;;;;;;;10.82;87.71;101519.47;4975571;28;20181;-76
2023/05/19 07:03:05;;;;;;;0.00;0.00;;;;;;;11.01;88.78;101536.03;4993211;28;20205;-76
2023/05/19 07:05:30;;;;;;;0.17;0.17;;;;;;;11.18;87.82;101541.88;4992865;28;20172;-77
2023/05/19 07:07:56;;;;;;;0.17;0.17;;;;;;;11.34;87.01;101526.13;4974936;28;20577;-76
2023/05/19 07:10:21;;;;;;;1.47;1.47;;;;;;;11.26;85.42;101522.06;4975289;28;20582;-75
2023/05/19 07:12:46;;;;;;;0.20;0.20;;;;;;;11.37;85.42;101527.44;4992681;28;20264;-77
2023/05/19 07:15:12;;;;;;;0.10;0.10;;;;;;;11.51;85.85;101521.00;4992641;28;20181;-76
2023/05/19 07:17:37;;;;;;;0.90;0.73;;;;;;;11.35;83.61;101515.97;4992299;28;20180;-76
2023/05/19 07:20:05;;;;;;;0.13;0.13;;;;;;;11.44;84.42;101526.00;4992656;28;20315;-77
2023/05/19 07:22:33;;;;;;;0.00;0.00;;;;;;;11.70;84.11;101520.22;4972867;28;20235;-76
2023/05/19 07:24:59;;;;;;;0.10;0.10;;;;;;;11.80;83.10;101518.22;4992535;28;20556;-76
2023/05/19 07:27:24;;;;;;;0.00;0.00;;;;;;;11.82;83.08;101520.66;4974567;28;20200;-76
2023/05/19 07:29:49;;;;;;;0.70;0.63;;;;;;;11.87;82.46;101512.41;4992342;28;20184;-76
2023/05/19 07:32:15;;;;;;;0.00;0.00;;;;;;;11.90;83.15;101523.56;4974686;28;20692;-76
2023/05/19 07:34:40;;;;;;;2.47;2.17;;;;;;;12.04;82.35;101518.19;4992368;28;20196;-74
2023/05/19 07:37:05;;;;;;;1.27;0.47;;;;;;;11.88;80.08;101490.19;4985492;28;20187;-76
2023/05/19 07:39:33;;;;;;;1.90;1.00;;;;;;;11.93;79.72;101504.91;4981825;28;20227;-76
2023/05/19 07:41:59;;;;;;;1.53;1.40;;;;;;;11.82;80.17;101498.75;4992094;28;20575;-76
2023/05/19 07:44:25;;;;;;;0.00;0.00;;;;;;;11.87;80.78;101506.91;4992361;28;20189;-74
2023/05/19 07:46:51;;;;;;;0.97;0.97;;;;;;;12.07;80.05;101492.13;4984933;28;20554;-75
2023/05/19 07:49:16;;;;;;;0.00;0.00;;;;;;;12.32;80.98;101507.38;4974696;28;20270;-77
2023/05/19 07:51:41;;;;;;;1.17;0.60;;;;;;;12.11;80.13;101495.88;4985975;28;20269;-76
2023/05/19 07:54:07;;;;;;;1.07;0.60;;;;;;;12.08;80.18;101505.53;4972532;28;20642;-75
2023/05/19 07:56:33;;;;;;;0.20;0.20;;;;;;;12.35;80.50;101504.03;4955382;28;20188;-77
2023/05/19 07:58:58;;;;;;;0.43;0.43;;;;;;;12.27;78.93;101500.03;4976513;28;20551;-76
2023/05/19 08:01:23;;;;;;;1.47;1.30;;;;;;;12.35;79.39;101498.56;4991837;28;20205;-75
2023/05/19 08:03:49;;;;;;;0.37;0.37;;;;;;;12.50;79.60;101503.81;4991822;28;20546;-76
2023/05/19 08:06:14;;;;;;;0.30;0.30;;;;;;;12.69;79.71;101509.25;4991806;28;20743;-77
2023/05/19 08:08:40;;;;;;;0.33;0.33;;;;;;;12.53;77.60;101494.97;4991606;28;20181;-75
2023/05/19 08:11:06;;;;;;;0.07;0.07;;;;;;;12.76;77.48;101494.06;4991098;28;20209;-77
2023/05/19 08:13:32;;;;;;;0.63;0.63;;;;;;;12.75;75.60;101492.44;4991522;28;20651;-74
2023/05/19 08:15:58;;;;;;;0.10;0.10;;;;;;;12.74;75.21;101490.00;4974021;28;20199;-77
2023/05/19 08:18:25;;;;;;;1.00;0.53;;;;;;;12.78;75.75;101491.00;4991580;28;20671;-75
2023/05/19 08:20:50;;;;;;;0.93;0.73;;;;;;;12.81;75.13;101487.66;4991607;28;20177;-76
2023/05/19 08:23:16;;;;;;;1.13;1.03;;;;;;;12.80;74.93;101475.88;4991601;28;20212;-76
2023/05/19 08:25:42;;;;;;;0.10;0.10;;;;;;;12.74;74.60;101474.34;4974104;28;20272;-77
2023/05/19 08:28:07;;;;;;;0.97;0.47;;;;;;;13.13;75.24;101491.47;4973764;28;20232;-76
2023/05/19 08:30:32;;;;;;;0.33;0.33;;;;;;;13.08;72.91;101467.72;4974056;28;20201;-76
2023/05/19 08:32:58;;;;;;;0.00;0.00;;;;;;;13.35;75.30;101489.72;4974468;28;20213;-80
2023/05/19 08:35:23;;;;;;;1.77;1.17;;;;;;;13.36;73.19;101472.13;4975151;28;20568;-80
2023/05/19 08:37:48;;;;;;;0.30;0.27;;;;;;;13.34;72.15;101459.84;4974539;28;20185;-79
2023/05/19 08:40:17;;;;;;;1.17;1.17;;;;;;;13.40;72.01;101464.09;4992197;28;20319;-76
2023/05/19 08:42:43;;;;;;;3.80;1.37;;;;;;;13.39;71.63;101462.47;4974498;28;20254;-78
2023/05/19 08:45:09;;;;;;;0.77;0.40;;;;;;;13.62;71.16;101452.41;4974731;28;20184;-79
2023/05/19 08:47:34;;;;;;;8.90;1.47;;;;;;;13.66;70.84;101454.22;4991429;28;20720;-78
2023/05/19 08:50:09;;;;;;;0.00;0.00;;;;;;;13.90;72.31;101458.66;4991667;28;20306;-77
2023/05/19 08:53:07;;;;;;;0.40;0.40;;;;;;;14.11;72.33;101461.75;4991152;28;20331;-76
2023/05/19 08:55:52;;;;;;;0.93;0.63;;;;;;;14.43;71.19;101456.03;4937878;28;20239;-77
2023/05/19 08:58:19;;;;;;;1.40;1.17;;;;;;;14.27;69.31;101432.78;4973192;28;20671;-76
2023/05/19 09:00:45;;;;;;;0.50;0.50;;;;;;;14.21;68.38;101426.59;4991111;28;20176;-76
2023/05/19 09:03:12;;;;;;;0.00;0.00;;;;;;;14.42;69.10;101434.34;4990876;28;20201;-76
2023/05/19 09:05:37;;;;;;;0.20;0.10;;;;;;;14.54;67.95;101418.94;4988078;28;20185;-77
2023/05/19 09:08:03;;;;;;;0.47;0.47;;;;;;;14.63;66.77;101415.44;4990608;28;20239;-77
2023/05/19 09:10:29;;;;;;;0.60;0.60;;;;;;;14.81;66.87;101414.41;4991067;28;20193;-77
2023/05/19 09:12:54;;;;;;;1.23;1.13;;;;;;;14.56;66.36;101415.84;4990974;28;20209;-75
2023/05/19 09:15:24;;;;;;;0.30;0.30;;;;;;;14.75;66.72;101416.44;4990833;28;20690;-76
2023/05/19 09:17:49;;;;;;;0.47;0.47;;;;;;;15.14;66.59;101412.09;4975715;28;20192;-77
2023/05/19 09:20:15;;;;;;;2.93;0.67;;;;;;;15.17;64.40;101397.69;4995453;28;20176;-77
2023/05/19 09:22:46;;;;;;;1.83;1.13;;;;;;;14.91;64.21;101394.88;4996188;28;20197;-77
2023/05/19 09:25:19;;;;;;;0.60;0.60;;;;;;;14.88;64.68;101401.78;4978383;28;20181;-76
2023/05/19 09:27:46;;;;;;;0.20;0.20;;;;;;;15.18;64.88;101405.63;4994251;28;20213;-77
2023/05/19 09:30:12;;;;;;;0.30;0.30;;;;;;;15.11;62.09;101385.22;4977242;28;20585;-77
2023/05/19 09:32:38;;;;;;;0.10;0.10;;;;;;;15.37;63.48;101401.81;4994339;28;20592;-77
2023/05/19 09:35:03;;;;;;;1.30;0.87;;;;;;;15.37;62.96;101388.88;4994568;28;20267;-76
2023/05/19 09:37:29;;;;;;;0.40;0.40;;;;;;;14.99;61.91;101385.00;4994201;28;20239;-76
2023/05/19 09:39:55;;;;;;;0.70;0.40;;;;;;;15.22;63.13;101400.31;4977047;28;20737;-77
2023/05/19 09:42:25;;;;;;;0.87;0.87;;;;;;;15.52;62.08;101386.78;4994329;28;20197;-77
2023/05/19 09:44:59;;;;;;;3.93;0.87;;;;;;;15.50;61.07;101372.53;4994439;28;20182;-77
2023/05/19 09:47:25;;;;;;;1.23;1.13;;;;;;;15.57;61.57;101386.63;4993988;28;20879;-77
2023/05/19 09:49:51;;;;;;;0.33;0.33;;;;;;;15.54;62.02;101384.50;4976773;28;20204;-77
2023/05/19 09:52:17;;;;;;;1.80;0.90;;;;;;;15.26;61.34;101372.94;4994167;28;20609;-77
2023/05/19 09:54:43;;;;;;;1.90;0.97;;;;;;;15.35;61.62;101365.53;4976879;28;20185;-76
2023/05/19 09:57:09;;;;;;;1.07;0.97;;;;;;;15.80;62.37;101382.63;4994100;28;20184;-77
2023/05/19 09:59:35;;;;;;;2.60;1.70;;;;;;;15.74;60.78;101372.88;4994373;28;20612;-75
2023/05/19 10:02:01;;;;;;;2.13;1.67;;;;;;;15.43;60.00;101368.28;4976426;28;20204;-75
2023/05/19 10:04:27;;;;;;;1.00;0.90;;;;;;;15.71;60.97;101365.28;4994439;28;20180;-74
2023/05/19 10:06:54;;;;;;;0.67;0.67;;;;;;;16.09;61.20;101383.94;4993756;28;20654;-77
2023/05/19 10:09:24;;;;;;;2.30;1.20;;;;;;;15.94;59.80;101352.97;4993894;28;20206;-78
2023/05/19 10:11:54;;;;;;;0.20;0.20;;;;;;;16.01;61.03;101369.00;4993991;28;20205;-77
2023/05/19 10:14:24;;;;;;;0.63;0.63;;;;;;;16.32;60.09;101369.59;4994388;28;20181;-77
2023/05/19 10:16:51;;;;;;;0.77;0.47;;;;;;;16.40;58.29;101353.38;4993707;28;20181;-77
2023/05/19 10:19:19;;;;;;;0.87;0.87;;;;;;;16.24;56.89;101329.09;4991587;28;20546;-77
2023/05/19 10:21:45;;;;;;;1.03;0.80;;;;;;;16.57;57.31;101339.53;4994222;28;20277;-75
2023/05/19 10:24:10;;;;;;;0.80;0.80;;;;;;;16.53;57.70;101352.38;4976982;28;20281;-77
2023/05/19 10:26:36;;;;;;;0.30;0.30;;;;;;;16.99;57.85;101340.53;4993386;28;20188;-77
2023/05/19 10:29:03;;;;;;;0.10;0.10;;;;;;;16.73;55.13;101315.81;4976669;28;20185;-77
2023/05/19 10:31:32;;;;;;;0.03;0.03;;;;;;;16.96;55.85;101319.13;4993806;28;20209;-77
2023/05/19 10:34:12;;;;;;;0.30;0.30;;;;;;;16.84;56.05;101319.81;4993901;28;20176;-77
2023/05/19 10:36:45;;;;;;;0.97;0.87;;;;;;;16.81;54.79;101308.63;4993446;28;20180;-77
2023/05/19 10:39:18;;;;;;;0.37;0.20;;;;;;;16.57;54.81;101301.72;4993909;28;20666;-76
2023/05/19 10:42:02;;;;;;;0.40;0.40;;;;;;;16.23;54.92;101310.13;4993614;28;20212;-77
2023/05/19 10:44:45;;;;;;;1.10;0.40;;;;;;;16.41;55.76;101313.63;4993830;28;20235;-76
2023/05/19 10:47:11;;;;;;;0.30;0.30;;;;;;;16.68;54.72;101317.94;4976071;28;20268;-77
2023/05/19 10:49:36;;;;;;;1.53;1.10;;;;;;;16.50;54.25;101301.44;4976555;28;20191;-76
2023/05/19 10:52:02;;;;;;;1.23;1.00;;;;;;;16.21;54.58;101296.66;4993949;28;20722;-77
2023/05/19 10:54:42;;;;;;;1.80;0.93;;;;;;;16.50;55.11;101311.66;4994140;28;20220;-77
2023/05/19 10:57:08;;;;;;;1.37;1.37;;;;;;;16.69;54.96;101317.63;4994556;28;20184;-77
2023/05/19 10:59:36;;;;;;;0.20;0.20;;;;;;;16.67;54.32;101303.34;4997315;28;20548;-77
2023/05/19 11:02:06;;;;;;;0.00;0.00;;;;;;;16.90;54.29;101298.34;4981549;28;20209;-77
2023/05/19 11:04:39;;;;;;;3.87;0.57;;;;;;;16.94;52.76;101291.03;4979948;28;20614;-77
2023/05/19 11:07:05;;;;;;;0.20;0.20;;;;;;;16.75;52.84;101285.09;4993246;28;20173;-77
2023/05/19 11:09:32;;;;;;;0.97;0.43;;;;;;;16.77;52.99;101286.38;4976177;28;20180;-77
2023/05/19 11:12:02;;;;;;;1.40;0.50;;;;;;;16.48;52.36;101278.88;4993205;28;20205;-77
2023/05/19 11:14:28;;;;;;;0.63;0.63;;;;;;;16.39;52.73;101286.38;4993287;28;20303;-77
2023/05/19 11:16:57;;;;;;;0.03;0.03;;;;;;;16.60;52.93;101283.69;4975260;28;20562;-77
2023/05/19 11:19:31;;;;;;;0.00;0.00;;;;;;;17.06;52.36;101280.06;4993157;28;20204;-77
2023/05/19 11:22:07;;;;;;;2.13;0.50;;;;;;;17.21;52.26;101284.19;4992795;28;20207;-77
2023/05/19 11:24:43;;;;;;;0.57;0.57;;;;;;;17.04;51.04;101276.81;4993152;28;20173;-77
2023/05/19 11:27:18;;;;;;;0.40;0.40;;;;;;;17.13;51.38;101283.09;4992603;28;20181;-77